sensor_id;sensor_type;location;lat;lon;timestamp;pressure;altitude;pressure_sealevel;temperature
18219;BMP180;9234;49.344;11.120;2023-05-01T00:00:05;97569.00;;;9.90
18219;BMP180;9234;49.344;11.120;2023-05-01T00:02:34;97565.00;;;9.90
18219;BMP180;9234;49.344;11.120;2023-05-01T00:05:05;97571.00;;;9.90
18219;BMP180;9234;49.344;11.120;2023-05-01T00:07:34;97562.00;;;9.90
18219;BMP180;9234;49.344;11.120;2023-05-01T00:10:03;97565.00;;;9.80
18219;BMP180;9234;49.344;11.120;2023-05-01T00:12:31;97552.00;;;9.80
18219;BMP180;9234;49.344;11.120;2023-05-01T00:14:59;97546.00;;;9.80
18219;BMP180;9234;49.344;11.120;2023-05-01T00:17:27;97556.00;;;9.80
18219;BMP180;9234;49.344;11.120;2023-05-01T00:19:57;97553.00;;;9.80
18219;BMP180;9234;49.344;11.120;2023-05-01T00:22:27;97547.00;;;9.80
18219;BMP180;9234;49.344;11.120;2023-05-01T00:24:55;97538.00;;;9.80
18219;BMP180;9234;49.344;11.120;2023-05-01T00:27:23;97536.00;;;9.80
18219;BMP180;9234;49.344;11.120;2023-05-01T00:29:51;97540.00;;;9.80
18219;BMP180;9234;49.344;11.120;2023-05-01T00:32:20;97531.00;;;9.80
18219;BMP180;9234;49.344;11.120;2023-05-01T00:34:48;97532.00;;;9.80
18219;BMP180;9234;49.344;11.120;2023-05-01T00:37:17;97526.00;;;9.80
18219;BMP180;9234;49.344;11.120;2023-05-01T00:39:46;97523.00;;;9.80
18219;BMP180;9234;49.344;11.120;2023-05-01T00:42:15;97522.00;;;9.80
18219;BMP180;9234;49.344;11.120;2023-05-01T00:44:43;97516.00;;;9.90
18219;BMP180;9234;49.344;11.120;2023-05-01T00:47:11;97495.00;;;9.90
18219;BMP180;9234;49.344;11.120;2023-05-01T00:49:41;97504.00;;;9.90
18219;BMP180;9234;49.344;11.120;2023-05-01T00:52:10;97524.00;;;9.90
18219;BMP180;9234;49.344;11.120;2023-05-01T00:54:39;97516.00;;;9.90
18219;BMP180;9234;49.344;11.120;2023-05-01T00:57:09;97511.00;;;9.90
18219;BMP180;9234;49.344;11.120;2023-05-01T00:59:37;97512.00;;;9.90
18219;BMP180;9234;49.344;11.120;2023-05-01T01:02:06;97510.00;;;9.80
18219;BMP180;9234;49.344;11.120;2023-05-01T01:04:34;97501.00;;;9.80
18219;BMP180;9234;49.344;11.120;2023-05-01T01:07:11;97505.00;;;9.80
18219;BMP180;9234;49.344;11.120;2023-05-01T01:09:56;97500.00;;;9.80
18219;BMP180;9234;49.344;11.120;2023-05-01T01:12:35;97503.00;;;9.80
18219;BMP180;9234;49.344;11.120;2023-05-01T01:15:18;97492.00;;;9.80
18219;BMP180;9234;49.344;11.120;2023-05-01T01:17:57;97476.00;;;9.70
18219;BMP180;9234;49.344;11.120;2023-05-01T01:20:36;97477.00;;;9.70
18219;BMP180;9234;49.344;11.120;2023-05-01T01:23:35;97469.00;;;9.70
18219;BMP180;9234;49.344;11.120;2023-05-01T01:26:26;97492.00;;;9.70
18219;BMP180;9234;49.344;11.120;2023-05-01T01:29:38;97475.00;;;9.60
18219;BMP180;9234;49.344;11.120;2023-05-01T01:32:39;97469.00;;;9.60
18219;BMP180;9234;49.344;11.120;2023-05-01T01:35:18;97483.00;;;9.50
18219;BMP180;9234;49.344;11.120;2023-05-01T01:37:55;97471.00;;;9.50
18219;BMP180;9234;49.344;11.120;2023-05-01T01:40:33;97468.00;;;9.50
18219;BMP180;9234;49.344;11.120;2023-05-01T01:43:05;97478.00;;;9.40
18219;BMP180;9234;49.344;11.120;2023-05-01T01:45:39;97484.00;;;9.40
18219;BMP180;9234;49.344;11.120;2023-05-01T01:48:12;97478.00;;;9.40
18219;BMP180;9234;49.344;11.120;2023-05-01T01:50:44;97474.00;;;9.40
18219;BMP180;9234;49.344;11.120;2023-05-01T01:53:17;97461.00;;;9.40
18219;BMP180;9234;49.344;11.120;2023-05-01T01:55:47;97473.00;;;9.30
18219;BMP180;9234;49.344;11.120;2023-05-01T01:58:20;97471.00;;;9.30
18219;BMP180;9234;49.344;11.120;2023-05-01T02:00:54;97465.00;;;9.30
18219;BMP180;9234;49.344;11.120;2023-05-01T02:03:25;97478.00;;;9.30
18219;BMP180;9234;49.344;11.120;2023-05-01T02:05:57;97471.00;;;9.20
18219;BMP180;9234;49.344;11.120;2023-05-01T02:08:29;97478.00;;;9.20
18219;BMP180;9234;49.344;11.120;2023-05-01T02:11:00;97477.00;;;9.20
18219;BMP180;9234;49.344;11.120;2023-05-01T02:13:32;97468.00;;;9.10
18219;BMP180;9234;49.344;11.120;2023-05-01T02:16:02;97458.00;;;9.10
18219;BMP180;9234;49.344;11.120;2023-05-01T02:18:32;97473.00;;;9.10
18219;BMP180;9234;49.344;11.120;2023-05-01T02:21:06;97464.00;;;9.10
18219;BMP180;9234;49.344;11.120;2023-05-01T02:23:37;97459.00;;;9.00
18219;BMP180;9234;49.344;11.120;2023-05-01T02:26:12;97456.00;;;9.00
18219;BMP180;9234;49.344;11.120;2023-05-01T02:28:42;97453.00;;;8.90
18219;BMP180;9234;49.344;11.120;2023-05-01T02:31:11;97452.00;;;8.90
18219;BMP180;9234;49.344;11.120;2023-05-01T02:33:40;97450.00;;;8.90
18219;BMP180;9234;49.344;11.120;2023-05-01T02:36:09;97447.00;;;8.80
18219;BMP180;9234;49.344;11.120;2023-05-01T02:38:39;97449.00;;;8.80
18219;BMP180;9234;49.344;11.120;2023-05-01T02:41:09;97448.00;;;8.80
18219;BMP180;9234;49.344;11.120;2023-05-01T02:43:41;97452.00;;;8.70
18219;BMP180;9234;49.344;11.120;2023-05-01T02:46:12;97443.00;;;8.70
18219;BMP180;9234;49.344;11.120;2023-05-01T02:48:41;97446.00;;;8.70
18219;BMP180;9234;49.344;11.120;2023-05-01T02:51:12;97442.00;;;8.60
18219;BMP180;9234;49.344;11.120;2023-05-01T02:53:41;97439.00;;;8.60
18219;BMP180;9234;49.344;11.120;2023-05-01T02:56:18;97442.00;;;8.50
18219;BMP180;9234;49.344;11.120;2023-05-01T02:58:47;97434.00;;;8.50
18219;BMP180;9234;49.344;11.120;2023-05-01T03:01:16;97435.00;;;8.40
18219;BMP180;9234;49.344;11.120;2023-05-01T03:03:44;97439.00;;;8.40
18219;BMP180;9234;49.344;11.120;2023-05-01T03:06:14;97426.00;;;8.30
18219;BMP180;9234;49.344;11.120;2023-05-01T03:08:42;97429.00;;;8.30
18219;BMP180;9234;49.344;11.120;2023-05-01T03:11:10;97434.00;;;8.30
18219;BMP180;9234;49.344;11.120;2023-05-01T03:13:38;97438.00;;;8.20
18219;BMP180;9234;49.344;11.120;2023-05-01T03:16:06;97427.00;;;8.20
18219;BMP180;9234;49.344;11.120;2023-05-01T03:18:35;97429.00;;;8.20
18219;BMP180;9234;49.344;11.120;2023-05-01T03:21:03;97440.00;;;8.10
18219;BMP180;9234;49.344;11.120;2023-05-01T03:23:33;97432.00;;;8.10
18219;BMP180;9234;49.344;11.120;2023-05-01T03:26:01;97421.00;;;8.10
18219;BMP180;9234;49.344;11.120;2023-05-01T03:28:29;97422.00;;;8.10
18219;BMP180;9234;49.344;11.120;2023-05-01T03:30:57;97415.00;;;8.10
18219;BMP180;9234;49.344;11.120;2023-05-01T03:33:25;97410.00;;;8.10
18219;BMP180;9234;49.344;11.120;2023-05-01T03:36:01;97410.00;;;8.10
18219;BMP180;9234;49.344;11.120;2023-05-01T03:38:32;97423.00;;;8.00
18219;BMP180;9234;49.344;11.120;2023-05-01T03:41:26;97403.00;;;8.00
18219;BMP180;9234;49.344;11.120;2023-05-01T03:44:06;97406.00;;;8.00
18219;BMP180;9234;49.344;11.120;2023-05-01T03:46:40;97412.00;;;8.00
18219;BMP180;9234;49.344;11.120;2023-05-01T03:49:13;97409.00;;;8.00
18219;BMP180;9234;49.344;11.120;2023-05-01T03:51:45;97417.00;;;7.90
18219;BMP180;9234;49.344;11.120;2023-05-01T03:54:15;97398.00;;;7.90
18219;BMP180;9234;49.344;11.120;2023-05-01T03:57:06;97394.00;;;7.90
18219;BMP180;9234;49.344;11.120;2023-05-01T03:59:35;97391.00;;;7.90
18219;BMP180;9234;49.344;11.120;2023-05-01T04:02:03;97396.00;;;7.80
18219;BMP180;9234;49.344;11.120;2023-05-01T04:04:34;97395.00;;;7.80
18219;BMP180;9234;49.344;11.120;2023-05-01T04:07:03;97392.00;;;7.80
18219;BMP180;9234;49.344;11.120;2023-05-01T04:09:32;97400.00;;;7.80
18219;BMP180;9234;49.344;11.120;2023-05-01T04:12:03;97394.00;;;7.80
18219;BMP180;9234;49.344;11.120;2023-05-01T04:14:32;97396.00;;;7.80
18219;BMP180;9234;49.344;11.120;2023-05-01T04:17:00;97398.00;;;7.80
18219;BMP180;9234;49.344;11.120;2023-05-01T04:19:32;97402.00;;;7.80
18219;BMP180;9234;49.344;11.120;2023-05-01T04:22:00;97403.00;;;7.80
18219;BMP180;9234;49.344;11.120;2023-05-01T04:24:32;97399.00;;;7.80
18219;BMP180;9234;49.344;11.120;2023-05-01T04:27:00;97397.00;;;7.80
18219;BMP180;9234;49.344;11.120;2023-05-01T04:29:28;97401.00;;;7.90
18219;BMP180;9234;49.344;11.120;2023-05-01T04:31:56;97401.00;;;7.90
18219;BMP180;9234;49.344;11.120;2023-05-01T04:34:25;97401.00;;;7.90
18219;BMP180;9234;49.344;11.120;2023-05-01T04:36:55;97393.00;;;7.90
18219;BMP180;9234;49.344;11.120;2023-05-01T04:39:24;97399.00;;;7.90
18219;BMP180;9234;49.344;11.120;2023-05-01T04:41:54;97394.00;;;7.90
18219;BMP180;9234;49.344;11.120;2023-05-01T04:44:24;97408.00;;;8.00
18219;BMP180;9234;49.344;11.120;2023-05-01T04:46:52;97401.00;;;8.00
18219;BMP180;9234;49.344;11.120;2023-05-01T04:49:21;97412.00;;;8.00
18219;BMP180;9234;49.344;11.120;2023-05-01T04:51:49;97423.00;;;8.10
18219;BMP180;9234;49.344;11.120;2023-05-01T04:54:18;97389.00;;;8.10
18219;BMP180;9234;49.344;11.120;2023-05-01T04:56:46;97388.00;;;8.20
18219;BMP180;9234;49.344;11.120;2023-05-01T04:59:16;97402.00;;;8.30
18219;BMP180;9234;49.344;11.120;2023-05-01T05:01:44;97392.00;;;8.30
18219;BMP180;9234;49.344;11.120;2023-05-01T05:04:13;97393.00;;;8.40
18219;BMP180;9234;49.344;11.120;2023-05-01T05:06:41;97389.00;;;8.50
18219;BMP180;9234;49.344;11.120;2023-05-01T05:09:14;97387.00;;;8.50
18219;BMP180;9234;49.344;11.120;2023-05-01T05:11:46;97387.00;;;8.60
18219;BMP180;9234;49.344;11.120;2023-05-01T05:14:23;97393.00;;;8.70
18219;BMP180;9234;49.344;11.120;2023-05-01T05:16:54;97385.00;;;8.80
18219;BMP180;9234;49.344;11.120;2023-05-01T05:19:23;97392.00;;;8.90
18219;BMP180;9234;49.344;11.120;2023-05-01T05:21:51;97386.00;;;9.00
18219;BMP180;9234;49.344;11.120;2023-05-01T05:24:19;97386.00;;;9.10
18219;BMP180;9234;49.344;11.120;2023-05-01T05:26:47;97381.00;;;9.30
18219;BMP180;9234;49.344;11.120;2023-05-01T05:29:16;97386.00;;;9.40
18219;BMP180;9234;49.344;11.120;2023-05-01T05:31:46;97379.00;;;9.50
18219;BMP180;9234;49.344;11.120;2023-05-01T05:34:14;97379.00;;;9.60
18219;BMP180;9234;49.344;11.120;2023-05-01T05:36:44;97385.00;;;9.80
18219;BMP180;9234;49.344;11.120;2023-05-01T05:39:14;97390.00;;;9.90
18219;BMP180;9234;49.344;11.120;2023-05-01T05:41:42;97379.00;;;10.00
18219;BMP180;9234;49.344;11.120;2023-05-01T05:44:10;97380.00;;;10.20
18219;BMP180;9234;49.344;11.120;2023-05-01T05:46:39;97375.00;;;10.40
18219;BMP180;9234;49.344;11.120;2023-05-01T05:49:09;97384.00;;;10.60
18219;BMP180;9234;49.344;11.120;2023-05-01T05:51:37;97373.00;;;10.70
18219;BMP180;9234;49.344;11.120;2023-05-01T05:54:07;97384.00;;;10.90
18219;BMP180;9234;49.344;11.120;2023-05-01T05:56:35;97369.00;;;11.00
18219;BMP180;9234;49.344;11.120;2023-05-01T05:59:04;97389.00;;;11.20
18219;BMP180;9234;49.344;11.120;2023-05-01T06:01:32;97369.00;;;11.40
18219;BMP180;9234;49.344;11.120;2023-05-01T06:04:03;97376.00;;;11.50
18219;BMP180;9234;49.344;11.120;2023-05-01T06:06:35;97378.00;;;11.70
18219;BMP180;9234;49.344;11.120;2023-05-01T06:09:04;97381.00;;;11.80
18219;BMP180;9234;49.344;11.120;2023-05-01T06:11:34;97359.00;;;12.00
18219;BMP180;9234;49.344;11.120;2023-05-01T06:14:02;97371.00;;;12.10
18219;BMP180;9234;49.344;11.120;2023-05-01T06:16:32;97362.00;;;12.30
18219;BMP180;9234;49.344;11.120;2023-05-01T06:19:02;97373.00;;;12.50
18219;BMP180;9234;49.344;11.120;2023-05-01T06:21:30;97357.00;;;12.70
18219;BMP180;9234;49.344;11.120;2023-05-01T06:24:02;97365.00;;;12.90
18219;BMP180;9234;49.344;11.120;2023-05-01T06:26:59;97372.00;;;13.10
18219;BMP180;9234;49.344;11.120;2023-05-01T06:29:28;97359.00;;;13.20
18219;BMP180;9234;49.344;11.120;2023-05-01T06:32:14;97355.00;;;13.40
18219;BMP180;9234;49.344;11.120;2023-05-01T06:34:42;97352.00;;;13.60
18219;BMP180;9234;49.344;11.120;2023-05-01T06:37:11;97357.00;;;13.70
18219;BMP180;9234;49.344;11.120;2023-05-01T06:39:39;97348.00;;;13.80
18219;BMP180;9234;49.344;11.120;2023-05-01T06:42:07;97355.00;;;13.90
18219;BMP180;9234;49.344;11.120;2023-05-01T06:44:39;97350.00;;;14.00
18219;BMP180;9234;49.344;11.120;2023-05-01T06:47:07;97350.00;;;14.10
18219;BMP180;9234;49.344;11.120;2023-05-01T06:49:37;97338.00;;;14.20
18219;BMP180;9234;49.344;11.120;2023-05-01T06:52:06;97334.00;;;14.30
18219;BMP180;9234;49.344;11.120;2023-05-01T06:54:34;97332.00;;;14.40
18219;BMP180;9234;49.344;11.120;2023-05-01T06:57:02;97339.00;;;14.50
18219;BMP180;9234;49.344;11.120;2023-05-01T06:59:31;97345.00;;;14.60
18219;BMP180;9234;49.344;11.120;2023-05-01T07:01:59;97352.00;;;14.80
18219;BMP180;9234;49.344;11.120;2023-05-01T07:04:27;97344.00;;;15.00
18219;BMP180;9234;49.344;11.120;2023-05-01T07:06:56;97354.00;;;15.10
18219;BMP180;9234;49.344;11.120;2023-05-01T07:09:24;97351.00;;;15.30
18219;BMP180;9234;49.344;11.120;2023-05-01T07:11:53;97335.00;;;15.50
18219;BMP180;9234;49.344;11.120;2023-05-01T07:14:22;97346.00;;;15.60
18219;BMP180;9234;49.344;11.120;2023-05-01T07:16:51;97345.00;;;15.70
18219;BMP180;9234;49.344;11.120;2023-05-01T07:19:19;97337.00;;;15.80
18219;BMP180;9234;49.344;11.120;2023-05-01T07:21:47;97341.00;;;15.90
18219;BMP180;9234;49.344;11.120;2023-05-01T07:24:16;97336.00;;;15.90
18219;BMP180;9234;49.344;11.120;2023-05-01T07:26:45;97332.00;;;16.10
18219;BMP180;9234;49.344;11.120;2023-05-01T07:29:14;97324.00;;;16.20
18219;BMP180;9234;49.344;11.120;2023-05-01T07:31:42;97316.00;;;16.30
18219;BMP180;9234;49.344;11.120;2023-05-01T07:34:11;97313.00;;;16.40
18219;BMP180;9234;49.344;11.120;2023-05-01T07:36:39;97322.00;;;16.50
18219;BMP180;9234;49.344;11.120;2023-05-01T07:39:08;97318.00;;;16.70
18219;BMP180;9234;49.344;11.120;2023-05-01T07:41:38;97311.00;;;16.80
18219;BMP180;9234;49.344;11.120;2023-05-01T07:44:06;97316.00;;;16.90
18219;BMP180;9234;49.344;11.120;2023-05-01T07:46:34;97313.00;;;17.00
18219;BMP180;9234;49.344;11.120;2023-05-01T07:49:03;97321.00;;;17.10
18219;BMP180;9234;49.344;11.120;2023-05-01T07:51:32;97305.00;;;17.20
18219;BMP180;9234;49.344;11.120;2023-05-01T07:54:00;97314.00;;;17.30
18219;BMP180;9234;49.344;11.120;2023-05-01T07:56:30;97309.00;;;17.40
18219;BMP180;9234;49.344;11.120;2023-05-01T07:59:00;97316.00;;;17.40
18219;BMP180;9234;49.344;11.120;2023-05-01T08:01:28;97312.00;;;17.50
18219;BMP180;9234;49.344;11.120;2023-05-01T08:03:56;97304.00;;;17.60
18219;BMP180;9234;49.344;11.120;2023-05-01T08:06:25;97310.00;;;17.70
18219;BMP180;9234;49.344;11.120;2023-05-01T08:08:54;97305.00;;;17.70
18219;BMP180;9234;49.344;11.120;2023-05-01T08:11:22;97311.00;;;17.80
18219;BMP180;9234;49.344;11.120;2023-05-01T08:13:50;97308.00;;;17.80
18219;BMP180;9234;49.344;11.120;2023-05-01T08:16:20;97308.00;;;17.90
18219;BMP180;9234;49.344;11.120;2023-05-01T08:18:48;97305.00;;;17.90
18219;BMP180;9234;49.344;11.120;2023-05-01T08:21:16;97304.00;;;18.00
18219;BMP180;9234;49.344;11.120;2023-05-01T08:23:44;97306.00;;;18.10
18219;BMP180;9234;49.344;11.120;2023-05-01T08:26:13;97300.00;;;18.20
18219;BMP180;9234;49.344;11.120;2023-05-01T08:28:42;97304.00;;;18.30
18219;BMP180;9234;49.344;11.120;2023-05-01T08:31:10;97305.00;;;18.30
18219;BMP180;9234;49.344;11.120;2023-05-01T08:33:39;97313.00;;;18.30
18219;BMP180;9234;49.344;11.120;2023-05-01T08:36:10;97308.00;;;18.30
18219;BMP180;9234;49.344;11.120;2023-05-01T08:38:38;97323.00;;;18.30
18219;BMP180;9234;49.344;11.120;2023-05-01T08:41:07;97311.00;;;18.30
18219;BMP180;9234;49.344;11.120;2023-05-01T08:43:36;97315.00;;;18.20
18219;BMP180;9234;49.344;11.120;2023-05-01T08:46:07;97311.00;;;18.20
18219;BMP180;9234;49.344;11.120;2023-05-01T08:48:39;97314.00;;;18.20
18219;BMP180;9234;49.344;11.120;2023-05-01T08:51:10;97307.00;;;18.20
18219;BMP180;9234;49.344;11.120;2023-05-01T08:53:40;97323.00;;;18.30
18219;BMP180;9234;49.344;11.120;2023-05-01T08:56:10;97316.00;;;18.40
18219;BMP180;9234;49.344;11.120;2023-05-01T08:58:43;97318.00;;;18.40
18219;BMP180;9234;49.344;11.120;2023-05-01T09:01:15;97315.00;;;18.40
18219;BMP180;9234;49.344;11.120;2023-05-01T09:03:45;97316.00;;;18.40
18219;BMP180;9234;49.344;11.120;2023-05-01T09:06:15;97314.00;;;18.40
18219;BMP180;9234;49.344;11.120;2023-05-01T09:08:43;97316.00;;;18.40
18219;BMP180;9234;49.344;11.120;2023-05-01T09:11:12;97308.00;;;18.30
18219;BMP180;9234;49.344;11.120;2023-05-01T09:13:40;97308.00;;;18.30
18219;BMP180;9234;49.344;11.120;2023-05-01T09:16:08;97319.00;;;18.40
18219;BMP180;9234;49.344;11.120;2023-05-01T09:18:38;97315.00;;;18.40
18219;BMP180;9234;49.344;11.120;2023-05-01T09:21:08;97301.00;;;18.40
18219;BMP180;9234;49.344;11.120;2023-05-01T09:23:36;97305.00;;;18.50
18219;BMP180;9234;49.344;11.120;2023-05-01T09:26:05;97307.00;;;18.60
18219;BMP180;9234;49.344;11.120;2023-05-01T09:28:41;97323.00;;;18.70
18219;BMP180;9234;49.344;11.120;2023-05-01T09:31:21;97312.00;;;18.80
18219;BMP180;9234;49.344;11.120;2023-05-01T09:33:55;97309.00;;;18.90
18219;BMP180;9234;49.344;11.120;2023-05-01T09:36:26;97304.00;;;19.00
18219;BMP180;9234;49.344;11.120;2023-05-01T09:38:57;97321.00;;;19.10
18219;BMP180;9234;49.344;11.120;2023-05-01T09:41:26;97302.00;;;19.10
18219;BMP180;9234;49.344;11.120;2023-05-01T09:43:56;97315.00;;;19.20
18219;BMP180;9234;49.344;11.120;2023-05-01T09:46:25;97321.00;;;19.20
18219;BMP180;9234;49.344;11.120;2023-05-01T09:48:56;97320.00;;;19.30
18219;BMP180;9234;49.344;11.120;2023-05-01T09:51:28;97324.00;;;19.30
18219;BMP180;9234;49.344;11.120;2023-05-01T09:53:59;97320.00;;;19.30
18219;BMP180;9234;49.344;11.120;2023-05-01T09:56:29;97315.00;;;19.30
18219;BMP180;9234;49.344;11.120;2023-05-01T09:59:13;97311.00;;;19.30
18219;BMP180;9234;49.344;11.120;2023-05-01T10:01:44;97314.00;;;19.20
18219;BMP180;9234;49.344;11.120;2023-05-01T10:04:14;97320.00;;;19.10
18219;BMP180;9234;49.344;11.120;2023-05-01T10:06:44;97333.00;;;18.90
18219;BMP180;9234;49.344;11.120;2023-05-01T10:09:26;97326.00;;;18.80
18219;BMP180;9234;49.344;11.120;2023-05-01T10:11:55;97334.00;;;18.60
18219;BMP180;9234;49.344;11.120;2023-05-01T10:14:24;97331.00;;;18.50
18219;BMP180;9234;49.344;11.120;2023-05-01T10:16:55;97334.00;;;18.30
18219;BMP180;9234;49.344;11.120;2023-05-01T10:19:24;97331.00;;;18.10
18219;BMP180;9234;49.344;11.120;2023-05-01T10:21:54;97335.00;;;17.80
18219;BMP180;9234;49.344;11.120;2023-05-01T10:24:22;97345.00;;;17.60
18219;BMP180;9234;49.344;11.120;2023-05-01T10:26:52;97347.00;;;17.40
18219;BMP180;9234;49.344;11.120;2023-05-01T10:29:23;97350.00;;;17.20
18219;BMP180;9234;49.344;11.120;2023-05-01T10:31:54;97345.00;;;17.00
18219;BMP180;9234;49.344;11.120;2023-05-01T10:34:25;97349.00;;;16.90
18219;BMP180;9234;49.344;11.120;2023-05-01T10:37:01;97345.00;;;16.70
18219;BMP180;9234;49.344;11.120;2023-05-01T10:39:30;97341.00;;;16.50
18219;BMP180;9234;49.344;11.120;2023-05-01T10:42:06;97344.00;;;16.30
18219;BMP180;9234;49.344;11.120;2023-05-01T10:44:37;97355.00;;;16.10
18219;BMP180;9234;49.344;11.120;2023-05-01T10:47:43;97344.00;;;15.80
18219;BMP180;9234;49.344;11.120;2023-05-01T10:50:12;97342.00;;;15.60
18219;BMP180;9234;49.344;11.120;2023-05-01T10:53:16;97336.00;;;15.50
18219;BMP180;9234;49.344;11.120;2023-05-01T10:55:47;97342.00;;;15.40
18219;BMP180;9234;49.344;11.120;2023-05-01T10:58:54;97334.00;;;15.20
18219;BMP180;9234;49.344;11.120;2023-05-01T11:01:31;97339.00;;;15.10
18219;BMP180;9234;49.344;11.120;2023-05-01T11:04:03;97342.00;;;15.00
18219;BMP180;9234;49.344;11.120;2023-05-01T11:06:35;97341.00;;;15.00
18219;BMP180;9234;49.344;11.120;2023-05-01T11:09:36;97324.00;;;14.90
18219;BMP180;9234;49.344;11.120;2023-05-01T11:12:06;97331.00;;;14.80
18219;BMP180;9234;49.344;11.120;2023-05-01T11:15:00;97328.00;;;14.70
18219;BMP180;9234;49.344;11.120;2023-05-01T11:17:46;97334.00;;;14.60
18219;BMP180;9234;49.344;11.120;2023-05-01T11:20:58;97326.00;;;14.60
18219;BMP180;9234;49.344;11.120;2023-05-01T11:23:28;97318.00;;;14.60
18219;BMP180;9234;49.344;11.120;2023-05-01T11:26:06;97327.00;;;14.70
18219;BMP180;9234;49.344;11.120;2023-05-01T11:28:38;97321.00;;;14.70
18219;BMP180;9234;49.344;11.120;2023-05-01T11:31:06;97321.00;;;14.80
18219;BMP180;9234;49.344;11.120;2023-05-01T11:33:34;97331.00;;;14.90
18219;BMP180;9234;49.344;11.120;2023-05-01T11:36:03;97325.00;;;15.00
18219;BMP180;9234;49.344;11.120;2023-05-01T11:38:31;97325.00;;;15.00
18219;BMP180;9234;49.344;11.120;2023-05-01T11:41:01;97325.00;;;15.10
18219;BMP180;9234;49.344;11.120;2023-05-01T11:43:31;97324.00;;;15.10
18219;BMP180;9234;49.344;11.120;2023-05-01T11:45:59;97327.00;;;15.20
18219;BMP180;9234;49.344;11.120;2023-05-01T11:48:31;97315.00;;;15.30
18219;BMP180;9234;49.344;11.120;2023-05-01T11:51:11;97323.00;;;15.40
18219;BMP180;9234;49.344;11.120;2023-05-01T11:53:39;97321.00;;;15.30
18219;BMP180;9234;49.344;11.120;2023-05-01T11:56:18;97309.00;;;15.30
18219;BMP180;9234;49.344;11.120;2023-05-01T11:58:55;97319.00;;;15.30
18219;BMP180;9234;49.344;11.120;2023-05-01T12:01:32;97318.00;;;15.30
18219;BMP180;9234;49.344;11.120;2023-05-01T12:04:02;97306.00;;;15.40
18219;BMP180;9234;49.344;11.120;2023-05-01T12:06:38;97317.00;;;15.40
18219;BMP180;9234;49.344;11.120;2023-05-01T12:09:10;97314.00;;;15.40
18219;BMP180;9234;49.344;11.120;2023-05-01T12:11:43;97312.00;;;15.40
18219;BMP180;9234;49.344;11.120;2023-05-01T12:14:14;97328.00;;;15.50
18219;BMP180;9234;49.344;11.120;2023-05-01T12:16:43;97316.00;;;15.50
18219;BMP180;9234;49.344;11.120;2023-05-01T12:19:14;97327.00;;;15.50
18219;BMP180;9234;49.344;11.120;2023-05-01T12:21:42;97312.00;;;15.50
18219;BMP180;9234;49.344;11.120;2023-05-01T12:24:12;97321.00;;;15.50
18219;BMP180;9234;49.344;11.120;2023-05-01T12:26:42;97309.00;;;15.60
18219;BMP180;9234;49.344;11.120;2023-05-01T12:29:12;97319.00;;;15.70
18219;BMP180;9234;49.344;11.120;2023-05-01T12:31:46;97315.00;;;15.90
18219;BMP180;9234;49.344;11.120;2023-05-01T12:34:15;97320.00;;;16.20
18219;BMP180;9234;49.344;11.120;2023-05-01T12:36:52;97312.00;;;16.40
18219;BMP180;9234;49.344;11.120;2023-05-01T12:39:21;97318.00;;;16.70
18219;BMP180;9234;49.344;11.120;2023-05-01T12:41:50;97315.00;;;17.10
18219;BMP180;9234;49.344;11.120;2023-05-01T12:44:22;97312.00;;;17.40
18219;BMP180;9234;49.344;11.120;2023-05-01T12:46:55;97308.00;;;17.60
18219;BMP180;9234;49.344;11.120;2023-05-01T12:49:27;97307.00;;;17.90
18219;BMP180;9234;49.344;11.120;2023-05-01T12:51:59;97310.00;;;18.20
18219;BMP180;9234;49.344;11.120;2023-05-01T12:54:29;97319.00;;;18.50
18219;BMP180;9234;49.344;11.120;2023-05-01T12:57:06;97300.00;;;18.90
18219;BMP180;9234;49.344;11.120;2023-05-01T12:59:38;97297.00;;;18.90
18219;BMP180;9234;49.344;11.120;2023-05-01T13:02:09;97304.00;;;19.00
18219;BMP180;9234;49.344;11.120;2023-05-01T13:04:40;97302.00;;;19.20
18219;BMP180;9234;49.344;11.120;2023-05-01T13:07:11;97298.00;;;19.50
18219;BMP180;9234;49.344;11.120;2023-05-01T13:09:51;97302.00;;;19.90
18219;BMP180;9234;49.344;11.120;2023-05-01T13:12:20;97292.00;;;20.10
18219;BMP180;9234;49.344;11.120;2023-05-01T13:14:50;97290.00;;;20.10
18219;BMP180;9234;49.344;11.120;2023-05-01T13:17:23;97294.00;;;20.00
18219;BMP180;9234;49.344;11.120;2023-05-01T13:19:53;97287.00;;;20.10
18219;BMP180;9234;49.344;11.120;2023-05-01T13:22:33;97291.00;;;20.30
18219;BMP180;9234;49.344;11.120;2023-05-01T13:25:04;97277.00;;;20.30
18219;BMP180;9234;49.344;11.120;2023-05-01T13:27:34;97286.00;;;20.20
18219;BMP180;9234;49.344;11.120;2023-05-01T13:30:05;97293.00;;;20.10
18219;BMP180;9234;49.344;11.120;2023-05-01T13:32:38;97294.00;;;19.80
18219;BMP180;9234;49.344;11.120;2023-05-01T13:35:09;97291.00;;;19.50
18219;BMP180;9234;49.344;11.120;2023-05-01T13:37:39;97292.00;;;19.20
18219;BMP180;9234;49.344;11.120;2023-05-01T13:40:09;97297.00;;;19.00
18219;BMP180;9234;49.344;11.120;2023-05-01T13:42:40;97287.00;;;18.70
18219;BMP180;9234;49.344;11.120;2023-05-01T13:45:11;97286.00;;;18.50
18219;BMP180;9234;49.344;11.120;2023-05-01T13:47:40;97295.00;;;18.40
18219;BMP180;9234;49.344;11.120;2023-05-01T13:50:12;97285.00;;;18.20
18219;BMP180;9234;49.344;11.120;2023-05-01T13:52:43;97290.00;;;18.10
18219;BMP180;9234;49.344;11.120;2023-05-01T13:55:12;97285.00;;;18.00
18219;BMP180;9234;49.344;11.120;2023-05-01T13:57:41;97292.00;;;17.90
18219;BMP180;9234;49.344;11.120;2023-05-01T14:00:16;97280.00;;;17.80
18219;BMP180;9234;49.344;11.120;2023-05-01T14:02:47;97288.00;;;17.80
18219;BMP180;9234;49.344;11.120;2023-05-01T14:05:19;97288.00;;;17.70
18219;BMP180;9234;49.344;11.120;2023-05-01T14:07:55;97283.00;;;17.60
18219;BMP180;9234;49.344;11.120;2023-05-01T14:10:27;97289.00;;;17.60
18219;BMP180;9234;49.344;11.120;2023-05-01T14:12:56;97280.00;;;17.60
18219;BMP180;9234;49.344;11.120;2023-05-01T14:15:27;97283.00;;;17.60
18219;BMP180;9234;49.344;11.120;2023-05-01T14:17:55;97282.00;;;17.50
18219;BMP180;9234;49.344;11.120;2023-05-01T14:20:27;97275.00;;;17.40
18219;BMP180;9234;49.344;11.120;2023-05-01T14:22:55;97278.00;;;17.40
18219;BMP180;9234;49.344;11.120;2023-05-01T14:25:26;97282.00;;;17.40
18219;BMP180;9234;49.344;11.120;2023-05-01T14:27:57;97274.00;;;17.40
18219;BMP180;9234;49.344;11.120;2023-05-01T14:30:30;97269.00;;;17.40
18219;BMP180;9234;49.344;11.120;2023-05-01T14:33:01;97274.00;;;17.30
18219;BMP180;9234;49.344;11.120;2023-05-01T14:35:30;97269.00;;;17.30
18219;BMP180;9234;49.344;11.120;2023-05-01T14:38:10;97277.00;;;17.30